Time;durP1;ratioP1;P1;durP2;ratioP2;P2;SDS_P1;SDS_P2;PMS_P1;PMS_P2;Temp;Humidity;BMP_temperature;BMP_pressure;BME280_temperature;BME280_humidity;BME280_pressure;Samples;Min_cycle;Max_cycle;Signal;HPM_P1;HPM_P2
2023/09/02 00:01:17;;;;;;;9.40;6.00;;;12.50;99.90;;;;;;4959387;28;20042;-82
2023/09/02 00:03:43;;;;;;;8.27;5.85;;;12.50;99.90;;;;;;4962359;28;20374;-82
2023/09/02 00:06:12;;;;;;;6.75;5.47;;;12.50;99.90;;;;;;4958861;28;20030;-82
2023/09/02 00:08:37;;;;;;;7.78;5.93;;;12.50;99.90;;;;;;4962238;28;20058;-82
2023/09/02 00:11:03;;;;;;;8.43;6.18;;;12.50;99.90;;;;;;4959545;28;20038;-83
2023/09/02 00:13:29;;;;;;;10.93;5.70;;;12.50;99.90;;;;;;4960983;28;20454;-82
2023/09/02 00:15:55;;;;;;;7.68;5.80;;;12.50;99.90;;;;;;4958626;28;20073;-83
2023/09/02 00:18:20;;;;;;;8.48;5.88;;;12.50;99.90;;;;;;4959162;28;20128;-83
2023/09/02 00:20:46;;;;;;;11.02;6.78;;;12.50;99.90;;;;;;4961481;28;20411;-83
2023/09/02 00:23:12;;;;;;;8.45;5.75;;;12.50;99.90;;;;;;4956225;28;20046;-83
2023/09/02 00:25:38;;;;;;;9.07;6.85;;;12.50;99.90;;;;;;4945888;28;20124;-82
2023/09/02 00:28:04;;;;;;;7.72;5.20;;;12.40;99.90;;;;;;4945752;28;20783;-83
2023/09/02 00:30:29;;;;;;;7.57;4.25;;;12.40;99.90;;;;;;4960810;28;20053;-82
2023/09/02 00:32:55;;;;;;;6.63;4.95;;;12.30;99.90;;;;;;4964229;28;20124;-82
2023/09/02 00:35:21;;;;;;;4.72;3.83;;;12.30;99.90;;;;;;4960815;28;20395;-83
2023/09/02 00:37:47;;;;;;;5.97;4.60;;;12.20;99.90;;;;;;4976994;28;20127;-82
2023/09/02 00:40:17;;;;;;;7.00;5.43;;;12.20;99.90;;;;;;4944813;28;20054;-83
2023/09/02 00:42:44;;;;;;;8.00;5.60;;;12.30;99.90;;;;;;4966427;28;20390;-83
2023/09/02 00:45:10;;;;;;;8.35;5.50;;;12.40;99.90;;;;;;4975464;28;20193;-83
2023/09/02 00:47:36;;;;;;;7.63;5.25;;;12.30;99.90;;;;;;4958931;28;20042;-82
2023/09/02 00:50:02;;;;;;;7.60;5.25;;;12.40;99.90;;;;;;4958446;28;20086;-83
2023/09/02 00:52:34;;;;;;;7.20;5.22;;;12.40;99.90;;;;;;4959885;28;20069;-82
2023/09/02 00:55:04;;;;;;;10.13;6.03;;;12.40;99.90;;;;;;4946240;28;20213;-83
2023/09/02 00:57:36;;;;;;;7.43;5.25;;;12.40;99.90;;;;;;4962791;28;20046;-82
2023/09/02 01:00:09;;;;;;;9.23;6.18;;;12.40;99.90;;;;;;4955803;28;20038;-83
2023/09/02 01:02:37;;;;;;;8.95;5.63;;;12.40;99.90;;;;;;4959594;28;20054;-83
2023/09/02 01:05:06;;;;;;;10.07;6.00;;;12.40;99.90;;;;;;4962242;28;20039;-83
2023/09/02 01:07:34;;;;;;;7.85;5.60;;;12.40;99.90;;;;;;4955335;28;20396;-82
2023/09/02 01:10:04;;;;;;;8.98;6.07;;;12.40;99.90;;;;;;4959611;28;20034;-83
2023/09/02 01:12:31;;;;;;;8.20;5.15;;;12.30;99.90;;;;;;4957709;28;20121;-83
2023/09/02 01:14:59;;;;;;;7.60;5.22;;;12.30;99.90;;;;;;4973215;28;20035;-83
2023/09/02 01:17:25;;;;;;;7.85;5.82;;;12.30;99.90;;;;;;4962341;28;20388;-83
2023/09/02 01:19:52;;;;;;;8.27;5.80;;;12.30;99.90;;;;;;4975946;28;20030;-82
2023/09/02 01:22:55;;;;;;;8.40;5.05;;;12.30;99.90;;;;;;4941683;28;20129;-83
2023/09/02 01:25:48;;;;;;;7.75;4.72;;;12.30;99.90;;;;;;4964637;28;20480;-83
2023/09/02 01:28:20;;;;;;;7.13;4.40;;;12.20;99.90;;;;;;4965150;28;20122;-83
2023/09/02 01:30:49;;;;;;;6.03;4.40;;;12.00;99.90;;;;;;4964315;28;20337;-83
2023/09/02 01:33:17;;;;;;;6.63;5.07;;;11.90;99.90;;;;;;4966086;28;20042;-83
2023/09/02 01:35:44;;;;;;;6.05;4.28;;;11.90;99.90;;;;;;4964163;28;20200;-83
2023/09/02 01:38:10;;;;;;;6.03;5.22;;;12.00;99.90;;;;;;4961223;28;20038;-83
2023/09/02 01:40:38;;;;;;;6.80;4.55;;;11.90;99.90;;;;;;4964147;28;20489;-83
2023/09/02 01:43:05;;;;;;;5.18;4.60;;;11.90;99.90;;;;;;4980823;28;20034;-83
2023/09/02 01:45:34;;;;;;;5.65;4.53;;;11.90;99.90;;;;;;4961149;28;20465;-83
2023/09/02 01:48:00;;;;;;;8.07;6.05;;;12.00;99.90;;;;;;4950850;28;20390;-83
2023/09/02 01:50:29;;;;;;;6.65;5.70;;;12.00;99.90;;;;;;4948306;28;20051;-83
2023/09/02 01:52:59;;;;;;;7.03;5.53;;;12.00;99.90;;;;;;4960348;28;20041;-83
2023/09/02 01:55:28;;;;;;;6.32;4.82;;;12.00;99.90;;;;;;4977321;28;20053;-82
2023/09/02 01:58:02;;;;;;;9.20;5.90;;;12.00;99.90;;;;;;4961507;28;20497;-83
2023/09/02 02:00:27;;;;;;;8.38;4.97;;;12.00;99.90;;;;;;4945971;28;20039;-82
2023/09/02 02:02:58;;;;;;;6.90;5.30;;;12.10;99.90;;;;;;4980543;28;20038;-83
2023/09/02 02:05:34;;;;;;;7.40;6.13;;;12.00;99.90;;;;;;4961451;28;20043;-83
2023/09/02 02:08:12;;;;;;;9.43;5.93;;;12.10;99.90;;;;;;4939356;28;20058;-82
2023/09/02 02:10:41;;;;;;;8.43;5.60;;;12.10;99.90;;;;;;4959691;28;20112;-83
2023/09/02 02:13:07;;;;;;;9.18;5.80;;;12.10;99.90;;;;;;4956148;28;20126;-83
2023/09/02 02:15:32;;;;;;;8.60;6.63;;;12.10;99.90;;;;;;4941698;28;20138;-83
2023/09/02 02:17:58;;;;;;;7.70;5.88;;;12.10;99.90;;;;;;4958824;28;20049;-83
2023/09/02 02:20:29;;;;;;;10.32;6.43;;;12.10;99.90;;;;;;4962728;28;20132;-82
2023/09/02 02:22:55;;;;;;;9.32;6.45;;;12.10;99.90;;;;;;4959427;28;20069;-83
2023/09/02 02:25:20;;;;;;;9.15;6.45;;;12.10;99.90;;;;;;4959843;28;20049;-83
2023/09/02 02:27:46;;;;;;;11.80;7.32;;;12.10;99.90;;;;;;4961633;28;20049;-83
2023/09/02 02:30:12;;;;;;;10.63;6.80;;;12.10;99.90;;;;;;4958830;28;20726;-83
2023/09/02 02:32:38;;;;;;;9.18;6.40;;;12.10;99.90;;;;;;4962350;28;20549;-83
2023/09/02 02:35:05;;;;;;;8.30;4.60;;;12.10;99.90;;;;;;4958866;28;20042;-83
2023/09/02 02:37:31;;;;;;;3.58;2.90;;;11.90;99.90;;;;;;4958378;28;20046;-83
2023/09/02 02:39:56;;;;;;;7.90;6.15;;;11.90;99.90;;;;;;4978003;28;20042;-83
2023/09/02 02:42:22;;;;;;;9.93;6.60;;;11.90;99.90;;;;;;4943636;28;20482;-83
2023/09/02 02:44:48;;;;;;;8.98;7.38;;;11.90;99.90;;;;;;4961161;28;20033;-83
2023/09/02 02:47:14;;;;;;;9.55;6.95;;;11.90;99.90;;;;;;4961701;28;20035;-83
2023/09/02 02:49:39;;;;;;;9.70;6.80;;;12.00;99.90;;;;;;4942342;28;20146;-83
2023/09/02 02:52:05;;;;;;;10.18;6.75;;;12.00;99.90;;;;;;4960358;28;20958;-83
2023/09/02 02:54:30;;;;;;;8.98;6.03;;;11.90;99.90;;;;;;4957895;28;20498;-83
2023/09/02 02:56:56;;;;;;;7.68;5.97;;;11.80;99.90;;;;;;4958718;28;20069;-83
2023/09/02 02:59:24;;;;;;;4.97;3.90;;;11.90;99.90;;;;;;4956178;28;20058;-83
2023/09/02 03:01:51;;;;;;;7.28;5.65;;;11.90;99.90;;;;;;4971003;28;20410;-83
2023/09/02 03:04:17;;;;;;;7.32;4.95;;;11.90;99.90;;;;;;4962069;28;20286;-83
2023/09/02 03:06:43;;;;;;;7.72;5.40;;;11.80;99.90;;;;;;4959011;28;20035;-83
2023/09/02 03:09:09;;;;;;;9.65;6.22;;;11.80;99.90;;;;;;4957201;28;20282;-83
2023/09/02 03:11:34;;;;;;;7.47;5.57;;;11.80;99.90;;;;;;4957836;28;20061;-83
2023/09/02 03:14:00;;;;;;;8.57;6.43;;;11.80;99.90;;;;;;4953848;28;20049;-83
2023/09/02 03:16:25;;;;;;;8.60;6.47;;;11.90;99.90;;;;;;4955225;28;20438;-83
2023/09/02 03:18:52;;;;;;;7.28;5.10;;;11.90;99.90;;;;;;4959012;28;20341;-83
2023/09/02 03:21:18;;;;;;;5.00;3.95;;;11.80;99.90;;;;;;4942348;28;20042;-83
2023/09/02 03:23:44;;;;;;;5.97;4.80;;;11.80;99.90;;;;;;4960713;28;20471;-83
2023/09/02 03:26:15;;;;;;;4.45;3.67;;;11.90;99.90;;;;;;4955771;28;20039;-83
2023/09/02 03:28:40;;;;;;;5.35;4.35;;;11.90;99.90;;;;;;4958815;28;20039;-83
2023/09/02 03:31:07;;;;;;;8.93;6.38;;;11.80;99.90;;;;;;4957655;28;20096;-83
2023/09/02 03:33:33;;;;;;;6.63;5.05;;;11.90;99.90;;;;;;4955702;28;20073;-83
2023/09/02 03:35:59;;;;;;;9.02;5.35;;;11.80;99.90;;;;;;4961407;28;20058;-83
2023/09/02 03:38:27;;;;;;;8.60;4.85;;;11.70;99.90;;;;;;4957844;28;20110;-83
2023/09/02 03:40:53;;;;;;;8.27;5.30;;;11.80;99.90;;;;;;4976500;28;20050;-82
2023/09/02 03:43:19;;;;;;;6.40;4.97;;;11.70;99.90;;;;;;4959814;28;20062;-83
2023/09/02 03:45:48;;;;;;;7.53;4.88;;;11.70;99.90;;;;;;4955909;28;20470;-82
2023/09/02 03:48:18;;;;;;;7.43;5.20;;;11.70;99.90;;;;;;4961897;28;20372;-83
2023/09/02 03:51:05;;;;;;;7.07;5.43;;;11.70;99.90;;;;;;4966749;28;20054;-83
2023/09/02 03:53:34;;;;;;;6.68;5.30;;;11.70;99.90;;;;;;4959452;28;20042;-83
2023/09/02 03:56:00;;;;;;;8.02;4.72;;;11.80;99.90;;;;;;4958379;28;20438;-83
2023/09/02 03:58:27;;;;;;;7.25;5.40;;;11.90;99.90;;;;;;4942499;28;20515;-83
2023/09/02 04:00:53;;;;;;;10.70;6.75;;;12.00;99.90;;;;;;4953155;28;20566;-82
2023/09/02 04:03:21;;;;;;;9.02;6.28;;;12.10;99.90;;;;;;4941039;28;20046;-83
2023/09/02 04:05:50;;;;;;;11.90;7.30;;;12.10;99.90;;;;;;4959208;28;20041;-83
2023/09/02 04:08:18;;;;;;;9.30;6.13;;;12.10;99.90;;;;;;4957904;28;20055;-83
2023/09/02 04:10:44;;;;;;;10.77;7.03;;;12.20;99.90;;;;;;4973492;28;20205;-83
2023/09/02 04:13:11;;;;;;;10.20;7.43;;;12.20;99.90;;;;;;4957569;28;20450;-83
2023/09/02 04:15:36;;;;;;;10.65;6.65;;;12.20;99.90;;;;;;4958669;28;20047;-83
2023/09/02 04:18:03;;;;;;;7.45;5.93;;;12.30;99.90;;;;;;4953284;28;20407;-83
2023/09/02 04:20:28;;;;;;;6.90;5.00;;;12.20;99.90;;;;;;4958204;28;20050;-83
2023/09/02 04:22:54;;;;;;;11.73;7.90;;;12.20;99.90;;;;;;4972869;28;20039;-83
2023/09/02 04:25:20;;;;;;;9.40;6.55;;;12.30;99.90;;;;;;4942098;28;20171;-82
2023/09/02 04:27:46;;;;;;;11.32;7.55;;;12.30;99.90;;;;;;4941806;28;20299;-83
2023/09/02 04:30:12;;;;;;;10.07;7.43;;;12.30;99.90;;;;;;4958687;28;20059;-83
2023/09/02 04:32:38;;;;;;;12.27;7.70;;;12.40;99.90;;;;;;4957451;28;20395;-83
2023/09/02 04:35:05;;;;;;;9.90;7.30;;;12.40;99.90;;;;;;4957551;28;20045;-83
2023/09/02 04:37:30;;;;;;;10.35;7.13;;;12.40;99.90;;;;;;4957680;28;20558;-83
2023/09/02 04:39:56;;;;;;;12.95;7.90;;;12.40;99.90;;;;;;4955065;28;20114;-83
2023/09/02 04:42:21;;;;;;;11.85;8.15;;;12.40;99.90;;;;;;4957478;28;20190;-83
2023/09/02 04:44:49;;;;;;;13.82;8.63;;;12.40;99.90;;;;;;4956214;28;20035;-83
2023/09/02 04:47:15;;;;;;;11.10;7.93;;;12.50;99.90;;;;;;4944748;28;20038;-83
2023/09/02 04:49:40;;;;;;;13.30;8.35;;;12.50;99.90;;;;;;4938932;28;20573;-83
2023/09/02 04:52:06;;;;;;;10.82;8.07;;;12.50;99.90;;;;;;4952910;28;20047;-83
2023/09/02 04:54:32;;;;;;;16.63;8.48;;;12.50;99.90;;;;;;4940414;28;20047;-83
2023/09/02 04:56:57;;;;;;;12.02;7.78;;;12.50;99.90;;;;;;4956713;28;20047;-83
2023/09/02 04:59:23;;;;;;;13.48;8.55;;;12.40;99.90;;;;;;4957685;28;20485;-83
2023/09/02 05:01:49;;;;;;;11.05;6.97;;;12.40;99.90;;;;;;4957151;28;20484;-83
2023/09/02 05:04:14;;;;;;;9.68;7.05;;;12.30;99.90;;;;;;4960653;28;20062;-83
2023/09/02 05:06:40;;;;;;;10.82;7.95;;;12.30;99.90;;;;;;4942280;28;20042;-83
2023/09/02 05:09:06;;;;;;;16.98;9.32;;;12.30;99.90;;;;;;4958513;28;20575;-82
2023/09/02 05:11:31;;;;;;;13.82;9.73;;;12.40;99.90;;;;;;4955018;28;20043;-84
2023/09/02 05:13:57;;;;;;;11.15;8.57;;;12.40;99.90;;;;;;4948895;28;20046;-83
2023/09/02 05:16:23;;;;;;;12.23;8.63;;;12.40;99.90;;;;;;4955988;28;20043;-83
2023/09/02 05:18:48;;;;;;;17.77;10.07;;;12.50;99.90;;;;;;4956495;28;20156;-83
2023/09/02 05:21:14;;;;;;;18.63;11.52;;;12.50;99.90;;;;;;4939277;28;20557;-83
2023/09/02 05:23:39;;;;;;;15.48;10.63;;;12.60;99.90;;;;;;4954987;28;20205;-83
2023/09/02 05:26:05;;;;;;;12.35;8.75;;;12.60;99.90;;;;;;4970763;28;20509;-83
2023/09/02 05:28:31;;;;;;;14.90;9.27;;;12.50;99.90;;;;;;4955339;28;20043;-84
2023/09/02 05:31:00;;;;;;;13.98;9.55;;;12.50;99.90;;;;;;4955400;28;20078;-83
2023/09/02 05:33:29;;;;;;;12.75;9.48;;;12.60;99.90;;;;;;4958000;28;20047;-84
2023/09/02 05:35:55;;;;;;;15.63;10.38;;;12.60;99.90;;;;;;4958816;28;20042;-83
2023/09/02 05:38:21;;;;;;;13.02;9.68;;;12.70;99.90;;;;;;4937121;28;20144;-83
2023/09/02 05:40:46;;;;;;;16.05;10.60;;;12.70;99.90;;;;;;4956692;28;20436;-83
2023/09/02 05:43:12;;;;;;;12.85;9.60;;;12.70;99.90;;;;;;4940947;28;20049;-83
2023/09/02 05:45:38;;;;;;;12.27;9.13;;;12.70;99.90;;;;;;4940883;28;20485;-84
2023/09/02 05:48:04;;;;;;;15.90;10.07;;;12.80;99.90;;;;;;4958276;28;20034;-84
2023/09/02 05:50:30;;;;;;;16.13;10.57;;;12.80;99.90;;;;;;4958582;28;20078;-83
2023/09/02 05:52:56;;;;;;;14.52;10.10;;;12.90;99.90;;;;;;4955127;28;20082;-83
2023/09/02 05:55:22;;;;;;;16.25;11.07;;;13.00;99.90;;;;;;4957362;28;20058;-83
2023/09/02 05:57:47;;;;;;;18.02;11.85;;;13.00;99.90;;;;;;4939556;28;20042;-83
2023/09/02 06:00:13;;;;;;;15.85;10.90;;;13.10;99.90;;;;;;4957113;28;20043;-83
2023/09/02 06:02:39;;;;;;;16.77;11.35;;;13.20;99.90;;;;;;4942306;28;20041;-83
2023/09/02 06:05:08;;;;;;;16.90;11.15;;;13.20;99.90;;;;;;4958472;28;20039;-83
2023/09/02 06:07:33;;;;;;;15.40;11.00;;;13.30;99.90;;;;;;4969065;28;20325;-84
2023/09/02 06:09:59;;;;;;;16.05;9.98;;;13.40;99.90;;;;;;4956800;28;20078;-83
2023/09/02 06:12:25;;;;;;;14.43;10.68;;;13.50;99.90;;;;;;4977807;28;20045;-83
2023/09/02 06:14:50;;;;;;;16.55;10.77;;;13.60;99.90;;;;;;4945955;28;20110;-84
2023/09/02 06:17:16;;;;;;;17.80;11.05;;;13.60;99.90;;;;;;4963324;28;20058;-83
2023/09/02 06:19:41;;;;;;;15.88;11.10;;;13.80;99.90;;;;;;4956056;28;20329;-84
2023/09/02 06:22:07;;;;;;;17.10;11.73;;;13.80;99.90;;;;;;4958203;28;20035;-83
2023/09/02 06:24:33;;;;;;;17.95;11.45;;;13.80;99.90;;;;;;4959793;28;20031;-83
2023/09/02 06:27:03;;;;;;;18.27;11.90;;;14.00;99.90;;;;;;4957622;28;20047;-84
2023/09/02 06:29:32;;;;;;;19.42;12.65;;;14.00;99.90;;;;;;4951045;28;20153;-84
2023/09/02 06:31:59;;;;;;;19.65;12.30;;;14.10;99.90;;;;;;4973011;28;20298;-83
2023/09/02 06:34:27;;;;;;;19.02;12.80;;;14.20;99.90;;;;;;4963462;28;20130;-83
2023/09/02 06:36:52;;;;;;;18.23;11.90;;;14.30;99.90;;;;;;4958901;28;20069;-84
2023/09/02 06:39:18;;;;;;;19.50;13.10;;;14.40;99.90;;;;;;4959614;28;20125;-83
2023/09/02 06:41:44;;;;;;;19.63;13.20;;;14.40;99.90;;;;;;4959830;28;20401;-84
2023/09/02 06:44:09;;;;;;;20.17;13.35;;;14.50;99.90;;;;;;4960592;28;20067;-84
2023/09/02 06:46:37;;;;;;;19.55;13.27;;;14.60;99.90;;;;;;4961889;28;20031;-84
2023/09/02 06:49:05;;;;;;;19.02;13.75;;;14.60;99.90;;;;;;4959921;28;20377;-83
2023/09/02 06:51:31;;;;;;;19.98;13.52;;;14.60;99.90;;;;;;4958202;28;20508;-84
2023/09/02 06:53:57;;;;;;;19.00;13.02;;;14.70;99.90;;;;;;4943728;28;20118;-84
2023/09/02 06:56:25;;;;;;;22.52;14.18;;;14.90;99.90;;;;;;4957298;28;20646;-84
2023/09/02 06:58:50;;;;;;;22.02;14.55;;;15.00;99.90;;;;;;4957656;28;20053;-84
2023/09/02 07:01:23;;;;;;;20.70;14.57;;;15.10;99.90;;;;;;4954381;28;20038;-84
2023/09/02 07:03:49;;;;;;;18.60;13.85;;;15.20;99.90;;;;;;4942810;28;20428;-83
2023/09/02 07:06:15;;;;;;;20.60;15.27;;;15.30;99.90;;;;;;4959693;28;20518;-84
2023/09/02 07:08:44;;;;;;;23.30;15.10;;;15.30;99.90;;;;;;4976343;28;20042;-84
2023/09/02 07:11:16;;;;;;;24.83;15.35;;;15.40;99.90;;;;;;4958229;28;20043;-84
2023/09/02 07:13:48;;;;;;;20.45;15.07;;;15.50;99.90;;;;;;4942649;28;20049;-83
2023/09/02 07:16:15;;;;;;;22.90;15.45;;;15.60;99.90;;;;;;4942037;28;20038;-84
2023/09/02 07:18:41;;;;;;;22.30;15.23;;;15.70;99.90;;;;;;4959453;28;20047;-84
2023/09/02 07:21:07;;;;;;;20.25;14.60;;;15.80;99.90;;;;;;4959985;28;20031;-83
2023/09/02 07:23:33;;;;;;;26.42;16.20;;;15.80;99.90;;;;;;4958795;28;20043;-84
2023/09/02 07:26:01;;;;;;;20.63;13.93;;;15.90;99.90;;;;;;4957754;28;20426;-84
2023/09/02 07:28:30;;;;;;;20.55;14.20;;;16.00;99.90;;;;;;4957558;28;20471;-84
2023/09/02 07:31:05;;;;;;;20.27;15.05;;;16.10;99.90;;;;;;4938421;28;20050;-84
2023/09/02 07:33:31;;;;;;;25.75;15.77;;;16.20;99.90;;;;;;4959639;28;20042;-84
2023/09/02 07:35:57;;;;;;;22.30;15.82;;;16.30;99.90;;;;;;4975393;28;20035;-83
2023/09/02 07:38:24;;;;;;;24.48;16.63;;;16.20;99.90;;;;;;4955887;28;20450;-84
2023/09/02 07:40:53;;;;;;;21.63;16.13;;;16.40;99.90;;;;;;4941743;28;20042;-84
2023/09/02 07:43:21;;;;;;;25.75;16.38;;;16.40;99.90;;;;;;4941657;28;20039;-84
2023/09/02 07:45:48;;;;;;;21.38;15.35;;;16.50;99.90;;;;;;4943685;28;20035;-84
2023/09/02 07:48:13;;;;;;;29.27;17.63;;;16.60;99.90;;;;;;4961188;28;20046;-84
2023/09/02 07:50:39;;;;;;;28.98;15.95;;;16.70;99.90;;;;;;4953905;28;20043;-84
2023/09/02 07:53:05;;;;;;;21.63;15.43;;;16.90;99.90;;;;;;4957278;28;20050;-84
2023/09/02 07:55:30;;;;;;;22.40;16.02;;;17.00;99.90;;;;;;4942164;28;20130;-83
2023/09/02 07:57:57;;;;;;;24.67;16.20;;;17.00;99.90;;;;;;4959359;28;20053;-83
2023/09/02 08:00:23;;;;;;;23.55;16.48;;;17.10;99.90;;;;;;4938351;28;20139;-83
2023/09/02 08:02:48;;;;;;;22.25;15.95;;;17.30;99.90;;;;;;4939210;28;20426;-84
2023/09/02 08:05:14;;;;;;;26.30;16.83;;;17.30;99.90;;;;;;4942691;28;20050;-84
2023/09/02 08:07:40;;;;;;;26.73;15.43;;;17.40;99.90;;;;;;4942886;28;20055;-83
2023/09/02 08:10:06;;;;;;;23.48;15.10;;;17.50;99.90;;;;;;4957870;28;20118;-84
2023/09/02 08:12:31;;;;;;;24.20;16.52;;;17.60;99.90;;;;;;4942451;28;20031;-84
2023/09/02 08:15:00;;;;;;;22.35;16.08;;;17.70;99.90;;;;;;4957755;28;20081;-84
2023/09/02 08:17:25;;;;;;;23.55;15.50;;;17.70;99.90;;;;;;4952993;28;21023;-84
2023/09/02 08:19:51;;;;;;;18.80;13.90;;;17.80;99.90;;;;;;4943501;28;20041;-85
2023/09/02 08:22:17;;;;;;;21.75;14.50;;;17.90;99.90;;;;;;4959467;28;20402;-83
2023/09/02 08:24:43;;;;;;;21.88;14.18;;;18.00;99.90;;;;;;4940840;28;20034;-84
2023/09/02 08:27:08;;;;;;;21.60;14.40;;;18.10;99.90;;;;;;4944359;28;20030;-84
2023/09/02 08:29:34;;;;;;;19.35;13.60;;;18.20;99.90;;;;;;4954702;28;20043;-84
2023/09/02 08:32:00;;;;;;;21.80;14.43;;;18.30;99.90;;;;;;4942348;28;20038;-85
2023/09/02 08:34:26;;;;;;;21.00;13.55;;;18.40;99.90;;;;;;4968943;28;20147;-83
2023/09/02 08:36:52;;;;;;;19.23;12.55;;;18.50;99.90;;;;;;4959013;28;20092;-84
2023/09/02 08:39:18;;;;;;;17.50;12.55;;;18.60;99.90;;;;;;4941552;28;20043;-84
2023/09/02 08:41:45;;;;;;;17.33;12.02;;;18.50;99.90;;;;;;4952978;28;20054;-84
2023/09/02 08:44:15;;;;;;;21.30;12.60;;;18.80;99.90;;;;;;4941996;28;20049;-85
2023/09/02 08:46:41;;;;;;;17.42;12.30;;;18.70;99.90;;;;;;4960033;28;20499;-84
2023/09/02 08:49:09;;;;;;;17.48;11.98;;;18.90;99.90;;;;;;4943876;28;20042;-84
2023/09/02 08:51:35;;;;;;;20.80;12.00;;;18.90;99.90;;;;;;4957958;28;20046;-83
2023/09/02 08:54:01;;;;;;;15.80;12.55;;;19.10;99.90;;;;;;4955616;28;20088;-83
2023/09/02 08:56:28;;;;;;;17.25;12.65;;;19.00;99.90;;;;;;4953615;28;20236;-84
2023/09/02 08:58:54;;;;;;;16.55;11.70;;;19.10;99.90;;;;;;4955332;28;20047;-84
2023/09/02 09:01:24;;;;;;;16.92;12.93;;;19.20;99.90;;;;;;4954372;28;20043;-84
2023/09/02 09:03:54;;;;;;;16.25;12.05;;;19.50;99.90;;;;;;4958681;28;20057;-84
2023/09/02 09:06:23;;;;;;;19.20;12.38;;;19.50;99.90;;;;;;4944134;28;20446;-84
2023/09/02 09:08:51;;;;;;;18.67;12.38;;;19.60;99.90;;;;;;4958689;28;20405;-84
2023/09/02 09:11:17;;;;;;;17.50;12.90;;;19.90;99.90;;;;;;4955097;28;20041;-85
2023/09/02 09:13:46;;;;;;;19.13;13.60;;;19.80;99.90;;;;;;4973478;28;20054;-84
2023/09/02 09:16:24;;;;;;;18.65;12.23;;;20.00;99.90;;;;;;4955640;28;20074;-84
2023/09/02 09:18:50;;;;;;;15.55;10.95;;;19.70;99.90;;;;;;4943261;28;20079;-84
2023/09/02 09:21:20;;;;;;;19.77;11.05;;;20.10;99.90;;;;;;4955723;28;20077;-84
2023/09/02 09:23:48;;;;;;;15.15;10.70;;;20.00;99.90;;;;;;4958805;28;20042;-83
2023/09/02 09:26:14;;;;;;;15.80;11.73;;;20.20;99.90;;;;;;4972495;28;20402;-85
2023/09/02 09:28:53;;;;;;;16.17;11.70;;;20.20;99.90;;;;;;4957938;28;20066;-84
2023/09/02 09:31:20;;;;;;;16.00;12.57;;;20.10;99.90;;;;;;4956626;28;20515;-84
2023/09/02 09:34:00;;;;;;;17.00;11.13;;;20.00;99.90;;;;;;4957156;28;20127;-84
2023/09/02 09:36:28;;;;;;;16.33;11.80;;;19.90;99.90;;;;;;4944553;28;20047;-84
2023/09/02 09:38:59;;;;;;;18.30;12.23;;;20.00;99.90;;;;;;4941573;28;20047;-84
2023/09/02 09:41:26;;;;;;;17.40;11.40;;;20.10;99.90;;;;;;4942036;28;20133;-85
2023/09/02 09:44:12;;;;;;;15.88;11.30;;;19.90;99.90;;;;;;4958768;28;20035;-84
2023/09/02 09:46:44;;;;;;;15.55;12.00;;;20.10;99.90;;;;;;4960155;28;20078;-84
2023/09/02 09:49:32;;;;;;;15.73;11.77;;;20.00;99.90;;;;;;4961511;28;20054;-84
2023/09/02 09:52:00;;;;;;;16.95;12.23;;;20.00;99.90;;;;;;4958630;28;20093;-85
2023/09/02 09:54:39;;;;;;;15.93;11.50;;;20.00;99.90;;;;;;4959776;28;20169;-84
2023/09/02 09:57:09;;;;;;;15.73;12.07;;;20.20;99.90;;;;;;4962273;28;20040;-84
2023/09/02 09:59:36;;;;;;;15.90;11.68;;;20.30;99.90;;;;;;4944415;28;20035;-84
2023/09/02 10:02:06;;;;;;;16.35;10.88;;;20.20;99.90;;;;;;4943667;28;20181;-84
2023/09/02 10:04:32;;;;;;;14.07;10.90;;;20.10;99.90;;;;;;4948236;28;20034;-84
2023/09/02 10:07:00;;;;;;;14.48;10.75;;;19.90;99.90;;;;;;4959545;28;20042;-85
2023/09/02 10:09:45;;;;;;;16.63;11.40;;;20.00;99.90;;;;;;4961267;28;20324;-84
2023/09/02 10:12:17;;;;;;;20.25;13.07;;;20.50;99.90;;;;;;4960970;28;20137;-83
2023/09/02 10:14:45;;;;;;;15.25;11.52;;;21.00;99.90;;;;;;4957043;28;20046;-84
2023/09/02 10:17:11;;;;;;;16.15;10.98;;;21.30;99.90;;;;;;4958482;28;20301;-85
2023/09/02 10:19:38;;;;;;;16.73;11.35;;;21.60;99.90;;;;;;4946924;28;20497;-84
2023/09/02 10:22:04;;;;;;;15.40;11.05;;;21.60;99.90;;;;;;4958356;28;20079;-84
2023/09/02 10:25:00;;;;;;;14.15;10.57;;;21.90;99.90;;;;;;4961845;28;20362;-84
2023/09/02 10:27:29;;;;;;;14.60;9.77;;;22.40;99.90;;;;;;4958403;28;20614;-84
2023/09/02 10:29:57;;;;;;;13.20;10.05;;;22.70;99.90;;;;;;4956633;28;20053;-84
2023/09/02 10:32:41;;;;;;;13.73;10.10;;;22.80;99.90;;;;;;4943611;28;20054;-84
2023/09/02 10:35:21;;;;;;;12.80;8.60;;;22.50;99.90;;;;;;4957549;28;20031;-84
2023/09/02 10:37:55;;;;;;;13.70;8.52;;;22.80;99.90;;;;;;4973831;28;20047;-84
2023/09/02 10:40:27;;;;;;;14.45;9.10;;;22.50;99.90;;;;;;4961044;28;20414;-84
2023/09/02 10:42:54;;;;;;;11.18;8.50;;;22.30;99.90;;;;;;4973909;28;20034;-84
2023/09/02 10:45:20;;;;;;;15.63;9.05;;;23.10;99.90;;;;;;4949533;28;20046;-84
2023/09/02 10:47:50;;;;;;;10.85;7.82;;;23.10;99.90;;;;;;4958515;28;20035;-84
2023/09/02 10:50:18;;;;;;;10.95;7.20;;;22.80;99.90;;;;;;4960428;28;20035;-84
2023/09/02 10:52:44;;;;;;;11.52;7.78;;;22.00;99.90;;;;;;4956055;28;20097;-84
2023/09/02 10:55:10;;;;;;;11.43;7.47;;;21.50;99.90;;;;;;4960090;28;20050;-84
2023/09/02 10:57:57;;;;;;;9.55;7.10;;;21.10;99.90;;;;;;4959664;28;20360;-84
2023/09/02 11:00:27;;;;;;;9.80;7.78;;;20.60;99.90;;;;;;4945013;28;20149;-84
2023/09/02 11:02:58;;;;;;;10.82;7.60;;;20.50;99.90;;;;;;4977585;28;20403;-84
2023/09/02 11:05:25;;;;;;;12.13;7.53;;;20.20;99.90;;;;;;4957616;28;20085;-83
2023/09/02 11:07:52;;;;;;;9.68;7.32;;;20.30;99.90;;;;;;4959706;28;20062;-84
2023/09/02 11:10:19;;;;;;;9.85;7.50;;;20.50;99.90;;;;;;4961793;28;20038;-83
2023/09/02 11:12:57;;;;;;;12.40;8.57;;;21.40;99.90;;;;;;4976504;28;20136;-84
2023/09/02 11:15:23;;;;;;;9.00;7.22;;;22.00;99.90;;;;;;4964107;28;20138;-84
2023/09/02 11:17:49;;;;;;;10.98;6.55;;;22.10;99.90;;;;;;4973548;28;20054;-84
2023/09/02 11:20:19;;;;;;;8.85;7.13;;;22.50;99.90;;;;;;4943215;28;20379;-84
2023/09/02 11:23:06;;;;;;;9.55;7.10;;;23.10;99.90;;;;;;4959596;28;20400;-83
2023/09/02 11:25:55;;;;;;;10.23;7.10;;;23.50;99.90;;;;;;4974975;28;20047;-84
2023/09/02 11:28:20;;;;;;;12.45;7.43;;;23.60;99.90;;;;;;4961247;28;20181;-84
2023/09/02 11:31:08;;;;;;;8.60;6.40;;;24.10;99.90;;;;;;4958105;28;20142;-85
2023/09/02 11:33:35;;;;;;;14.60;7.57;;;24.30;99.90;;;;;;4960731;28;20046;-85
2023/09/02 11:36:10;;;;;;;9.73;6.80;;;24.20;99.90;;;;;;4958261;28;20250;-85
2023/09/02 11:38:36;;;;;;;7.30;5.47;;;23.50;99.90;;;;;;4954613;28;20039;-84
2023/09/02 11:41:02;;;;;;;8.07;6.32;;;23.80;99.90;;;;;;4956973;28;20093;-84
2023/09/02 11:43:32;;;;;;;8.27;6.25;;;23.30;99.90;;;;;;4958684;28;20043;-85
2023/09/02 11:45:59;;;;;;;10.45;6.05;;;22.80;99.90;;;;;;4970353;28;20389;-84
2023/09/02 11:48:27;;;;;;;11.30;6.40;;;22.40;99.90;;;;;;4959764;28;20039;-84
2023/09/02 11:50:52;;;;;;;8.00;6.13;;;22.10;99.90;;;;;;4969897;28;20047;-84
2023/09/02 11:53:18;;;;;;;8.73;5.82;;;21.60;99.90;;;;;;4958788;28;20557;-83
2023/09/02 11:55:44;;;;;;;9.05;6.35;;;22.10;99.90;;;;;;4957125;28;20046;-84
2023/09/02 11:58:16;;;;;;;7.85;6.20;;;21.60;99.90;;;;;;4962007;28;20046;-85
2023/09/02 12:00:42;;;;;;;9.48;6.18;;;21.10;99.90;;;;;;4944905;28;20035;-84
2023/09/02 12:03:08;;;;;;;7.32;5.90;;;21.00;99.90;;;;;;4961061;28;20042;-84
2023/09/02 12:05:54;;;;;;;9.07;5.90;;;21.30;99.90;;;;;;4954784;28;20038;-84
2023/09/02 12:08:20;;;;;;;7.63;5.10;;;22.20;99.90;;;;;;4957949;28;20774;-83
2023/09/02 12:10:47;;;;;;;8.10;5.60;;;22.90;99.90;;;;;;4957212;28;20604;-84
2023/09/02 12:13:13;;;;;;;7.97;5.93;;;23.50;99.90;;;;;;4954764;28;20145;-84
2023/09/02 12:15:40;;;;;;;8.27;5.25;;;23.80;99.90;;;;;;4957777;28;20114;-84
2023/09/02 12:18:06;;;;;;;9.18;5.47;;;23.50;99.90;;;;;;4958969;28;20047;-85
2023/09/02 12:20:32;;;;;;;6.50;4.95;;;23.60;99.90;;;;;;4976089;28;20449;-85
2023/09/02 12:23:01;;;;;;;6.93;4.93;;;23.70;99.90;;;;;;4960812;28;20051;-85
2023/09/02 12:25:26;;;;;;;8.43;4.90;;;22.70;99.90;;;;;;4957984;28;20355;-84
2023/09/02 12:28:07;;;;;;;7.97;4.82;;;22.40;99.90;;;;;;4958944;28;20040;-83
2023/09/02 12:30:33;;;;;;;9.23;4.93;;;22.00;99.90;;;;;;4944162;28;20039;-84
2023/09/02 12:32:59;;;;;;;6.70;5.45;;;21.90;99.90;;;;;;4953974;28;20042;-85
2023/09/02 12:35:25;;;;;;;6.15;4.68;;;21.70;99.90;;;;;;4975084;28;20406;-84
2023/09/02 12:38:04;;;;;;;8.43;5.03;;;22.10;99.90;;;;;;4940659;28;20050;-84
2023/09/02 12:40:31;;;;;;;6.45;4.90;;;22.10;99.90;;;;;;4957783;28;20039;-84
2023/09/02 12:42:58;;;;;;;5.93;4.30;;;21.90;99.90;;;;;;4958678;28;20631;-84